Terminal Aerodrome Forecast
Issued by NWS

Home | Current Version | Previous Version | Text Only | Print | Product List | Glossary On
Versions: 1 2 3 4 5 6 7 8 9 10 11 12 13 14 15 16 17 18 19 20 21 22 23 24 25 26
485
FTUS42 TJSJ 232339
TAFJMZ
TAF
TJMZ 232339Z 2400/2424 05005KT P6SM FEW030 SCT050 BKN070
     FM240230 00000KT P6SM FEW050 SCT070
     FM241630 29015KT P6SM VCSH SCT030 BKN050
      AMD NOT SKED TIL 241100=

USA.gov is the U.S. government's official web portal to all federal, state and local government web resources and services.